Terminal Aerodrome Forecast
Issued by NWS Tulsa, OK

Home | Current Version | Previous Version | Text Only | Print | Product List | Glossary On
Versions: 1 2 3 4 5 6 7 8 9 10 11 12 13 14 15 16
000
FTUS44 KTSA 161100 RRA
TAFTUL
TAF
KTUL 161145Z 1612/1712 02005KT P6SM OVC012
     FM161700 04005KT P6SM BKN025
     FM162000 11005KT P6SM SCT035
     FM170000 13004KT P6SM SKC
     FM170600 16004KT P6SM SCT015=

USA.gov is the U.S. government's official web portal to all federal, state and local government web resources and services.